Time;durP1;ratioP1;P1;durP2;ratioP2;P2;SDS_P1;SDS_P2;PMS_P1;PMS_P2;Temp;Humidity;BMP_temperature;BMP_pressure;BME280_temperature;BME280_humidity;BME280_pressure;Samples;Min_cycle;Max_cycle;Signal;HPM_P1;HPM_P2
2020/12/13 00:00:33;;;;;;;47.30;28.25;;;3.20;99.90;;;;;;5028959;28;20515;-72
2020/12/13 00:03:00;;;;;;;45.60;29.10;;;3.20;99.90;;;;;;5023645;28;20499;-65
2020/12/13 00:05:27;;;;;;;49.67;27.65;;;3.20;99.90;;;;;;5025636;28;20491;-68
2020/12/13 00:07:54;;;;;;;45.38;29.40;;;3.30;99.90;;;;;;5023750;28;20184;-72
2020/12/13 00:10:21;;;;;;;45.08;28.05;;;3.30;99.90;;;;;;5026771;28;20357;-71
2020/12/13 00:12:48;;;;;;;49.38;28.70;;;3.30;99.90;;;;;;5021991;28;20068;-65
2020/12/13 00:15:15;;;;;;;47.63;28.13;;;3.30;99.90;;;;;;5023102;28;20134;-68
2020/12/13 00:17:41;;;;;;;48.35;29.20;;;3.30;99.90;;;;;;5018327;28;20048;-68
2020/12/13 00:20:08;;;;;;;48.88;29.05;;;3.20;99.90;;;;;;5024315;28;20053;-65
2020/12/13 00:22:35;;;;;;;47.33;30.13;;;3.30;99.90;;;;;;5020030;28;20056;-67
2020/12/13 00:25:02;;;;;;;46.05;29.13;;;3.30;99.90;;;;;;5025442;28;20118;-72
2020/12/13 00:27:29;;;;;;;48.25;28.20;;;3.30;99.90;;;;;;5029569;28;20055;-66
2020/12/13 00:29:55;;;;;;;49.33;29.70;;;3.30;99.90;;;;;;5020138;28;20160;-68
2020/12/13 00:32:30;;;;;;;48.35;29.73;;;3.30;99.90;;;;;;5023075;28;20460;-65
2020/12/13 00:34:58;;;;;;;45.78;26.45;;;3.30;99.90;;;;;;5021788;28;20045;-64
2020/12/13 00:37:25;;;;;;;48.60;27.48;;;3.30;99.90;;;;;;5030971;28;20045;-66
2020/12/13 00:39:53;;;;;;;43.30;24.83;;;3.30;99.90;;;;;;5024167;28;20063;-69
2020/12/13 00:42:20;;;;;;;43.25;26.55;;;3.30;99.90;;;;;;5028225;28;20114;-66
2020/12/13 00:44:47;;;;;;;49.30;29.13;;;3.30;99.90;;;;;;5024163;28;20041;-69
2020/12/13 00:47:13;;;;;;;43.20;28.45;;;3.30;99.90;;;;;;5028599;28;20146;-68
2020/12/13 00:49:40;;;;;;;54.35;32.30;;;3.30;99.90;;;;;;5025284;28;20770;-67
2020/12/13 00:52:07;;;;;;;49.95;27.33;;;3.30;99.90;;;;;;5026761;28;20106;-66
2020/12/13 00:54:35;;;;;;;46.10;30.02;;;3.30;99.90;;;;;;5022518;28;20057;-68
2020/12/13 00:57:01;;;;;;;53.05;30.98;;;3.30;99.90;;;;;;5029679;28;20041;-64
2020/12/13 00:59:28;;;;;;;52.60;30.10;;;3.30;99.90;;;;;;5022356;28;20116;-70
2020/12/13 01:01:54;;;;;;;63.72;34.03;;;3.30;99.90;;;;;;5027983;28;20775;-67
2020/12/13 01:04:21;;;;;;;51.30;30.10;;;3.30;99.90;;;;;;5027500;28;20049;-67
2020/12/13 01:06:48;;;;;;;55.30;28.42;;;3.30;99.90;;;;;;5030167;28;20041;-65
2020/12/13 01:09:15;;;;;;;58.33;31.55;;;3.30;99.90;;;;;;5025496;28;20099;-69
2020/12/13 01:11:41;;;;;;;57.60;32.17;;;3.30;99.90;;;;;;5027384;28;20073;-65
2020/12/13 01:14:09;;;;;;;56.10;34.70;;;3.30;99.90;;;;;;5025783;28;20152;-68
2020/12/13 01:16:35;;;;;;;52.03;30.33;;;3.30;99.90;;;;;;5036169;28;20076;-67
2020/12/13 01:19:03;;;;;;;60.38;34.63;;;3.30;99.90;;;;;;5025580;28;20630;-69
2020/12/13 01:21:30;;;;;;;61.08;33.55;;;3.30;99.90;;;;;;5033931;28;20440;-68
2020/12/13 01:23:57;;;;;;;61.28;31.88;;;3.30;99.90;;;;;;5024817;28;20088;-68
2020/12/13 01:26:25;;;;;;;47.25;29.13;;;3.30;99.90;;;;;;5031024;28;20570;-67
2020/12/13 01:28:53;;;;;;;52.75;31.13;;;3.30;99.90;;;;;;5023105;28;20059;-67
2020/12/13 01:31:22;;;;;;;56.45;31.08;;;3.30;99.90;;;;;;5025720;28;20449;-68
2020/12/13 01:33:50;;;;;;;52.20;30.35;;;3.30;99.90;;;;;;5023347;28;20050;-72
2020/12/13 01:36:20;;;;;;;57.35;30.77;;;3.30;99.90;;;;;;5029555;28;20057;-68
2020/12/13 01:38:47;;;;;;;59.33;32.17;;;3.30;99.90;;;;;;5022853;28;20071;-71
2020/12/13 01:41:15;;;;;;;54.60;32.78;;;3.30;99.90;;;;;;5029718;28;20076;-67
2020/12/13 01:43:55;;;;;;;60.13;32.80;;;3.30;99.90;;;;;;5023395;28;20163;-68
2020/12/13 01:46:22;;;;;;;53.47;31.00;;;3.30;99.90;;;;;;5033740;28;20115;-72
2020/12/13 01:48:57;;;;;;;59.05;31.83;;;3.30;99.90;;;;;;5023660;28;21385;-70
2020/12/13 01:51:41;;;;;;;50.17;28.90;;;3.30;99.90;;;;;;5027347;28;20053;-68
2020/12/13 01:54:12;;;;;;;61.88;31.23;;;3.30;99.90;;;;;;5023367;28;20556;-68
2020/12/13 01:57:01;;;;;;;62.03;32.13;;;3.30;99.90;;;;;;5029452;28;21057;-63
2020/12/13 01:59:30;;;;;;;59.88;30.95;;;3.30;99.90;;;;;;5024324;28;20752;-72
2020/12/13 02:01:59;;;;;;;55.35;30.23;;;3.30;99.90;;;;;;5024809;28;20779;-68
2020/12/13 02:04:28;;;;;;;57.47;31.10;;;3.30;99.90;;;;;;5022100;28;20101;-67
2020/12/13 02:06:57;;;;;;;54.25;30.13;;;3.30;99.90;;;;;;5025504;28;20049;-72
2020/12/13 02:09:25;;;;;;;54.45;31.02;;;3.30;99.90;;;;;;5022854;28;20045;-69
2020/12/13 02:11:52;;;;;;;63.67;33.80;;;3.20;99.90;;;;;;5024983;28;20048;-65
2020/12/13 02:14:19;;;;;;;61.38;31.13;;;3.30;99.90;;;;;;5027822;28;20081;-68
2020/12/13 02:16:53;;;;;;;56.88;30.67;;;3.30;99.90;;;;;;5026750;28;20064;-67
2020/12/13 02:19:20;;;;;;;60.58;32.25;;;3.30;99.90;;;;;;5022255;28;20156;-68
2020/12/13 02:21:51;;;;;;;59.38;30.98;;;3.30;99.90;;;;;;5031203;28;20136;-70
2020/12/13 02:24:19;;;;;;;60.22;30.15;;;3.30;99.90;;;;;;5025830;28;20526;-69
2020/12/13 02:26:47;;;;;;;58.08;32.45;;;3.20;99.90;;;;;;5020907;28;20052;-67
2020/12/13 02:29:14;;;;;;;51.53;32.20;;;3.30;99.90;;;;;;5023432;28;20049;-68
2020/12/13 02:31:40;;;;;;;55.88;30.38;;;3.30;99.90;;;;;;5024105;28;20057;-66
2020/12/13 02:34:07;;;;;;;56.38;30.00;;;3.30;99.90;;;;;;5019887;28;20045;-72
2020/12/13 02:36:34;;;;;;;59.28;29.90;;;3.30;99.90;;;;;;5025542;28;20166;-68
2020/12/13 02:39:03;;;;;;;67.25;33.50;;;3.30;99.90;;;;;;5018240;28;20044;-66
2020/12/13 02:41:29;;;;;;;64.82;31.77;;;3.30;99.90;;;;;;5025771;28;20041;-66
2020/12/13 02:43:56;;;;;;;55.92;30.65;;;3.20;99.90;;;;;;5021984;28;20045;-68
2020/12/13 02:46:22;;;;;;;55.58;32.58;;;3.30;99.90;;;;;;5020450;28;20049;-69
2020/12/13 02:48:51;;;;;;;58.03;32.50;;;3.20;99.90;;;;;;5028524;28;20041;-71
2020/12/13 02:51:18;;;;;;;59.38;30.25;;;3.20;99.90;;;;;;5021222;28;20654;-67
2020/12/13 02:53:45;;;;;;;55.88;29.75;;;3.20;99.90;;;;;;5021745;28;20570;-65
2020/12/13 02:56:11;;;;;;;66.05;32.50;;;3.20;99.90;;;;;;5024238;28;20051;-68
2020/12/13 02:58:37;;;;;;;54.15;28.35;;;3.20;99.90;;;;;;5031241;28;20069;-65
2020/12/13 03:01:04;;;;;;;55.53;30.40;;;3.20;99.90;;;;;;5022915;28;20057;-69
2020/12/13 03:03:49;;;;;;;63.63;29.90;;;3.20;99.90;;;;;;5024000;28;20047;-68
2020/12/13 03:06:15;;;;;;;47.08;27.60;;;3.20;99.90;;;;;;5024692;28;20048;-68
2020/12/13 03:08:42;;;;;;;54.53;29.48;;;3.20;99.90;;;;;;5025664;28;20573;-69
2020/12/13 03:11:08;;;;;;;58.20;33.20;;;3.20;99.90;;;;;;5021908;28;20053;-67
2020/12/13 03:13:35;;;;;;;54.88;26.48;;;3.20;99.90;;;;;;5030500;28;20041;-68
2020/12/13 03:16:01;;;;;;;49.00;26.13;;;3.20;99.90;;;;;;5023234;28;20081;-67
2020/12/13 03:18:28;;;;;;;58.83;29.65;;;3.20;99.90;;;;;;5030105;28;20049;-69
2020/12/13 03:20:54;;;;;;;45.83;23.35;;;3.20;99.90;;;;;;5021994;28;20055;-67
2020/12/13 03:23:20;;;;;;;42.63;24.88;;;3.20;99.90;;;;;;5022507;28;20152;-70
2020/12/13 03:25:48;;;;;;;44.05;24.58;;;3.20;99.90;;;;;;5020459;28;20136;-71
2020/12/13 03:28:14;;;;;;;42.05;21.80;;;3.10;99.90;;;;;;5033670;28;20045;-72
2020/12/13 03:30:40;;;;;;;42.35;22.75;;;3.10;99.90;;;;;;5024293;28;20056;-67
2020/12/13 03:33:07;;;;;;;43.03;24.13;;;3.10;99.90;;;;;;5021284;28;20452;-68
2020/12/13 03:35:34;;;;;;;38.97;21.00;;;3.10;99.90;;;;;;5021559;28;20041;-67
2020/12/13 03:38:00;;;;;;;39.88;21.38;;;3.10;99.90;;;;;;5024851;28;20038;-68
2020/12/13 03:40:27;;;;;;;40.58;21.67;;;3.10;99.90;;;;;;5017834;28;20056;-68
2020/12/13 03:42:53;;;;;;;39.75;20.00;;;3.10;99.90;;;;;;5028427;28;20586;-68
2020/12/13 03:45:19;;;;;;;37.35;19.40;;;3.10;99.90;;;;;;5026090;28;20068;-68
2020/12/13 03:47:48;;;;;;;37.08;19.23;;;3.10;99.90;;;;;;5022313;28;20057;-68
2020/12/13 03:50:15;;;;;;;37.70;19.88;;;3.10;99.90;;;;;;5024194;28;20056;-63
2020/12/13 03:52:41;;;;;;;36.13;21.27;;;3.00;99.90;;;;;;5018939;28;20667;-68
2020/12/13 03:55:08;;;;;;;32.85;20.75;;;3.10;99.90;;;;;;5019491;28;20341;-69
2020/12/13 03:57:34;;;;;;;31.23;19.38;;;3.10;99.90;;;;;;5023937;28;20160;-67
2020/12/13 04:00:03;;;;;;;34.45;18.55;;;3.00;99.90;;;;;;5021412;28;20049;-71
2020/12/13 04:02:32;;;;;;;33.03;17.85;;;3.00;99.90;;;;;;5024542;28;20095;-69
2020/12/13 04:04:59;;;;;;;33.67;16.17;;;3.00;99.90;;;;;;5030695;28;20044;-70
2020/12/13 04:07:25;;;;;;;30.52;15.68;;;3.00;99.90;;;;;;5026021;28;20050;-67
2020/12/13 04:09:52;;;;;;;29.33;17.20;;;3.00;99.90;;;;;;5032384;28;20056;-67
2020/12/13 04:12:18;;;;;;;28.48;18.55;;;3.00;99.90;;;;;;5018209;28;20710;-64
2020/12/13 04:14:45;;;;;;;29.83;16.88;;;3.00;99.90;;;;;;5022000;28;20491;-63
2020/12/13 04:17:11;;;;;;;28.13;15.68;;;3.00;99.90;;;;;;5038831;28;20065;-68
2020/12/13 04:19:37;;;;;;;31.58;15.95;;;3.00;99.90;;;;;;5039775;28;20224;-68
2020/12/13 04:22:04;;;;;;;26.40;16.77;;;3.00;99.90;;;;;;5033973;28;20090;-67
2020/12/13 04:24:30;;;;;;;21.27;12.90;;;3.00;99.90;;;;;;5028683;28;20782;-68
2020/12/13 04:26:57;;;;;;;23.35;14.18;;;3.00;99.90;;;;;;5025708;28;20071;-67
2020/12/13 04:29:23;;;;;;;27.38;15.32;;;3.00;99.90;;;;;;5013042;28;20118;-66
2020/12/13 04:31:51;;;;;;;28.00;14.55;;;3.00;99.90;;;;;;5020554;28;20573;-67
2020/12/13 04:34:17;;;;;;;22.80;13.32;;;2.90;99.90;;;;;;5030034;28;20111;-67
2020/12/13 04:36:44;;;;;;;22.80;12.65;;;3.00;99.90;;;;;;5019485;28;20103;-65
2020/12/13 04:39:11;;;;;;;26.75;13.23;;;2.90;99.90;;;;;;5022012;28;20041;-64
2020/12/13 04:41:37;;;;;;;22.35;12.32;;;2.90;99.90;;;;;;5022576;28;20127;-71
2020/12/13 04:44:04;;;;;;;18.83;11.15;;;2.90;99.90;;;;;;5025207;28;20049;-66
2020/12/13 04:46:30;;;;;;;17.02;10.45;;;2.90;99.90;;;;;;5021897;28;20136;-67
2020/12/13 04:48:57;;;;;;;18.40;9.85;;;2.90;99.90;;;;;;5029814;28;20057;-71
2020/12/13 04:51:27;;;;;;;17.80;10.23;;;2.80;99.90;;;;;;5022128;28;20790;-67
2020/12/13 04:54:23;;;;;;;17.42;10.73;;;2.80;99.90;;;;;;5020661;28;20060;-67
2020/12/13 04:56:51;;;;;;;18.10;11.25;;;2.80;99.90;;;;;;5018428;28;20462;-65
2020/12/13 04:59:18;;;;;;;19.13;10.77;;;2.70;99.90;;;;;;5029883;28;20124;-65
2020/12/13 05:01:45;;;;;;;18.65;10.35;;;2.70;99.90;;;;;;5022245;28;20461;-66
2020/12/13 05:04:12;;;;;;;17.63;11.07;;;2.70;99.90;;;;;;5026596;28;20043;-67
2020/12/13 05:06:41;;;;;;;16.45;9.23;;;2.80;99.90;;;;;;5019890;28;20072;-68
2020/12/13 05:09:09;;;;;;;18.83;11.25;;;2.70;99.90;;;;;;5024276;28;20211;-67
2020/12/13 05:11:41;;;;;;;22.73;11.40;;;2.70;99.90;;;;;;5021618;28;20115;-70
2020/12/13 05:14:07;;;;;;;22.75;11.50;;;2.70;99.90;;;;;;5032877;28;20056;-69
2020/12/13 05:16:34;;;;;;;17.85;12.80;;;2.70;99.90;;;;;;5022511;28;20049;-65
2020/12/13 05:19:00;;;;;;;19.73;12.70;;;2.70;99.90;;;;;;5027231;28;20077;-68
2020/12/13 05:21:27;;;;;;;17.23;10.73;;;2.70;99.90;;;;;;5024200;28;20179;-69
2020/12/13 05:23:54;;;;;;;19.95;11.93;;;2.70;99.90;;;;;;5030199;28;20615;-64
2020/12/13 05:26:22;;;;;;;22.88;11.75;;;2.70;99.90;;;;;;5023902;28;20065;-64
2020/12/13 05:28:53;;;;;;;24.08;13.02;;;2.70;99.90;;;;;;5028373;28;20136;-66
2020/12/13 05:31:23;;;;;;;18.60;11.18;;;2.70;99.90;;;;;;5024365;28;20539;-68
2020/12/13 05:34:00;;;;;;;20.17;12.68;;;2.70;99.90;;;;;;5032784;28;20525;-67
2020/12/13 05:36:29;;;;;;;19.27;11.98;;;2.70;99.90;;;;;;5026267;28;20055;-69
2020/12/13 05:38:59;;;;;;;18.48;11.23;;;2.70;99.90;;;;;;5024565;28;20068;-65
2020/12/13 05:41:36;;;;;;;20.73;9.98;;;2.70;99.90;;;;;;5026631;28;20524;-67
2020/12/13 05:52:14;;;;;;;16.80;11.30;;;2.60;99.90;;;;;;5026112;28;20041;-72
2020/12/13 05:54:42;;;;;;;18.63;13.43;;;2.60;99.90;;;;;;5025264;28;20045;-67
2020/12/13 05:57:10;;;;;;;17.92;12.38;;;2.60;99.90;;;;;;5022693;28;20496;-70
2020/12/13 05:59:36;;;;;;;18.50;12.45;;;2.50;99.90;;;;;;5036076;28;20139;-71
2020/12/13 06:02:03;;;;;;;17.25;11.10;;;2.50;99.90;;;;;;5025429;28;21296;-68
2020/12/13 06:04:32;;;;;;;16.98;11.68;;;2.50;99.90;;;;;;5021707;28;20156;-66
2020/12/13 06:07:03;;;;;;;17.63;10.85;;;2.50;99.90;;;;;;5024116;28;20872;-68
2020/12/13 06:09:38;;;;;;;14.70;9.82;;;2.50;99.90;;;;;;5027515;28;20085;-64
2020/12/13 06:12:11;;;;;;;13.98;10.63;;;2.50;99.90;;;;;;5026675;28;20340;-70
2020/12/13 06:14:41;;;;;;;15.95;9.93;;;2.50;99.90;;;;;;5030970;28;20287;-68
2020/12/13 06:17:08;;;;;;;17.17;9.45;;;2.50;99.90;;;;;;5029083;28;20068;-70
2020/12/13 06:19:38;;;;;;;15.77;9.93;;;2.50;99.90;;;;;;5033942;28;20679;-67
2020/12/13 06:22:13;;;;;;;16.92;10.43;;;2.40;99.90;;;;;;5022178;28;20574;-69
2020/12/13 06:24:44;;;;;;;18.65;10.00;;;2.40;99.90;;;;;;5029532;28;20603;-72
2020/12/13 06:27:10;;;;;;;16.15;9.68;;;2.40;99.90;;;;;;5026688;28;20596;-64
2020/12/13 06:29:37;;;;;;;15.55;10.27;;;2.40;99.90;;;;;;5025841;28;20081;-67
2020/12/13 06:32:03;;;;;;;18.50;10.90;;;2.40;99.90;;;;;;5027403;28;20481;-67
2020/12/13 06:34:30;;;;;;;19.48;10.23;;;2.40;99.90;;;;;;5029735;28;20060;-63
2020/12/13 06:36:57;;;;;;;16.80;10.65;;;2.40;99.90;;;;;;5024322;28;20049;-70
2020/12/13 06:39:24;;;;;;;21.58;12.40;;;2.40;99.90;;;;;;5052410;28;20084;-68
2020/12/13 06:41:54;;;;;;;14.98;9.85;;;2.40;99.90;;;;;;5023068;28;20152;-65
2020/12/13 06:44:22;;;;;;;15.40;9.82;;;2.40;99.90;;;;;;5030610;28;20033;-65
2020/12/13 06:46:48;;;;;;;18.52;10.18;;;2.40;99.90;;;;;;5023174;28;20065;-65
2020/12/13 06:49:17;;;;;;;13.40;8.98;;;2.40;99.90;;;;;;5025888;28;20131;-69
2020/12/13 06:51:46;;;;;;;16.50;9.73;;;2.40;99.90;;;;;;5025634;28;20056;-65
2020/12/13 06:54:16;;;;;;;15.93;9.93;;;2.40;99.90;;;;;;5025465;28;20064;-67
2020/12/13 06:56:43;;;;;;;16.73;11.50;;;2.30;99.90;;;;;;5029632;28;20053;-67
2020/12/13 06:59:11;;;;;;;13.60;8.32;;;2.40;99.90;;;;;;5026706;28;20451;-66
2020/12/13 07:01:40;;;;;;;15.35;9.82;;;2.40;99.90;;;;;;5029185;28;20056;-69
2020/12/13 07:04:24;;;;;;;17.08;11.38;;;2.30;99.90;;;;;;5026918;28;20048;-68
2020/12/13 07:06:58;;;;;;;15.65;9.93;;;2.30;99.90;;;;;;5027759;28;20056;-65
2020/12/13 07:09:28;;;;;;;13.93;9.50;;;2.30;99.90;;;;;;5031223;28;20571;-64
2020/12/13 07:11:55;;;;;;;15.60;9.55;;;2.30;99.90;;;;;;5024620;28;20052;-67
2020/12/13 07:14:25;;;;;;;13.32;9.38;;;2.30;99.90;;;;;;5026321;28;20049;-65
2020/12/13 07:17:27;;;;;;;19.98;11.88;;;2.40;99.90;;;;;;5025452;28;20049;-68
2020/12/13 07:19:48;;;;;;;16.40;10.13;;;2.30;99.90;;;;;;5026924;28;20045;-67
2020/12/13 07:22:16;;;;;;;21.13;11.32;;;2.30;99.90;;;;;;5027826;28;20104;-67
2020/12/13 07:24:43;;;;;;;16.73;11.02;;;2.30;99.90;;;;;;5024705;28;20076;-66
2020/12/13 07:27:10;;;;;;;19.50;11.52;;;2.30;99.90;;;;;;5027277;28;20083;-66
2020/12/13 07:29:37;;;;;;;15.70;10.60;;;2.30;99.90;;;;;;5026930;28;20048;-68
2020/12/13 07:32:05;;;;;;;19.15;11.35;;;2.30;99.90;;;;;;5026370;28;20495;-65
2020/12/13 07:34:33;;;;;;;19.10;10.43;;;2.30;99.90;;;;;;5023639;28;20132;-65
2020/12/13 07:37:00;;;;;;;18.70;10.93;;;2.30;99.90;;;;;;5030766;28;20045;-66
2020/12/13 07:39:30;;;;;;;15.13;9.60;;;2.30;99.90;;;;;;5038248;28;20156;-66
2020/12/13 07:41:57;;;;;;;15.48;10.18;;;2.30;99.90;;;;;;5025598;28;20347;-66
2020/12/13 07:44:31;;;;;;;16.85;12.50;;;2.30;99.90;;;;;;5022449;28;20504;-65
2020/12/13 07:46:57;;;;;;;16.98;11.13;;;2.30;99.90;;;;;;5024444;28;20045;-64
2020/12/13 07:49:26;;;;;;;19.02;13.25;;;2.30;99.90;;;;;;5025221;28;20049;-67
2020/12/13 07:51:58;;;;;;;17.20;11.63;;;2.30;99.90;;;;;;5026138;28;20051;-66
2020/12/13 07:54:28;;;;;;;17.25;10.73;;;2.30;99.90;;;;;;5023601;28;20227;-71
2020/12/13 07:56:56;;;;;;;19.77;12.60;;;2.30;99.90;;;;;;5023019;28;20093;-70
2020/12/13 07:59:28;;;;;;;20.80;11.60;;;2.30;99.90;;;;;;5028771;28;20038;-68
2020/12/13 08:01:57;;;;;;;17.60;11.10;;;2.30;99.90;;;;;;5026256;28;20045;-67
2020/12/13 08:04:33;;;;;;;17.95;11.90;;;2.30;99.90;;;;;;5025944;28;20741;-70
2020/12/13 08:07:05;;;;;;;21.52;11.55;;;2.30;99.90;;;;;;5020818;28;20132;-70
2020/12/13 08:09:31;;;;;;;18.67;11.38;;;2.30;99.90;;;;;;5027318;28;20139;-64
2020/12/13 08:11:58;;;;;;;15.30;9.68;;;2.30;99.90;;;;;;5024694;28;20136;-66
2020/12/13 08:14:26;;;;;;;18.95;11.23;;;2.30;99.90;;;;;;5025146;28;20057;-68
2020/12/13 08:16:55;;;;;;;18.35;10.88;;;2.30;99.90;;;;;;5019818;28;20539;-69
2020/12/13 08:19:51;;;;;;;20.48;11.80;;;2.30;99.90;;;;;;5026268;28;20045;-66
2020/12/13 08:22:22;;;;;;;20.42;12.05;;;2.30;99.90;;;;;;5019663;28;20041;-67
2020/12/13 08:25:00;;;;;;;17.35;11.05;;;2.30;99.90;;;;;;5026158;28;20045;-68
2020/12/13 08:27:29;;;;;;;23.23;11.57;;;2.30;99.90;;;;;;5021428;28;20064;-69
2020/12/13 08:29:57;;;;;;;18.38;12.27;;;2.30;99.90;;;;;;5026332;28;20119;-67
2020/12/13 08:32:32;;;;;;;22.55;12.80;;;2.30;99.90;;;;;;5025520;28;20069;-67
2020/12/13 08:35:12;;;;;;;19.52;12.05;;;2.30;99.90;;;;;;5027206;28;20048;-65
2020/12/13 08:37:39;;;;;;;18.20;11.65;;;2.30;99.90;;;;;;5018702;28;20053;-70
2020/12/13 08:40:42;;;;;;;21.92;12.68;;;2.30;99.90;;;;;;5026970;28;20438;-66
2020/12/13 08:43:10;;;;;;;18.30;12.35;;;2.30;99.90;;;;;;5024864;28;20053;-64
2020/12/13 08:45:37;;;;;;;21.13;14.55;;;2.30;99.90;;;;;;5025126;28;20126;-71
2020/12/13 08:48:08;;;;;;;19.70;12.30;;;2.30;99.90;;;;;;5022409;28;20819;-68
2020/12/13 08:50:40;;;;;;;20.42;12.57;;;2.30;99.90;;;;;;5020682;28;20050;-71
2020/12/13 08:53:20;;;;;;;18.27;11.48;;;2.30;99.90;;;;;;5017434;28;20187;-71
2020/12/13 08:56:09;;;;;;;16.67;12.57;;;2.30;99.90;;;;;;5022994;28;20064;-69
2020/12/13 08:58:52;;;;;;;22.10;13.75;;;2.30;99.90;;;;;;5015457;28;20470;-69
2020/12/13 09:01:25;;;;;;;20.98;13.45;;;2.30;99.90;;;;;;5028053;28;20705;-65
2020/12/13 09:04:22;;;;;;;22.20;13.57;;;2.30;99.90;;;;;;5024407;28;20476;-72
2020/12/13 09:06:52;;;;;;;20.48;13.30;;;2.40;99.90;;;;;;5025845;28;20045;-69
2020/12/13 09:09:19;;;;;;;;;;;2.40;99.90;;;;;;5027306;28;20765;-65
2020/12/13 09:11:46;;;;;;;24.50;14.48;;;2.40;99.90;;;;;;5029012;28;20020;-66
2020/12/13 09:14:23;;;;;;;24.50;14.50;;;2.40;99.90;;;;;;5025434;28;20053;-72
2020/12/13 09:16:49;;;;;;;19.35;13.30;;;2.40;99.90;;;;;;5025952;28;20060;-68
2020/12/13 09:19:16;;;;;;;22.95;13.73;;;2.40;99.90;;;;;;5020236;28;20809;-67
2020/12/13 09:21:50;;;;;;;20.95;13.65;;;2.50;99.90;;;;;;5029928;28;20066;-67
2020/12/13 09:24:20;;;;;;;27.63;14.85;;;2.50;99.90;;;;;;5027783;28;20126;-67
2020/12/13 09:27:11;;;;;;;25.30;14.32;;;2.50;99.90;;;;;;5023518;28;20622;-67
2020/12/13 09:29:39;;;;;;;27.58;16.20;;;2.50;99.90;;;;;;5024770;28;20222;-67
2020/12/13 09:32:09;;;;;;;24.13;15.23;;;2.50;99.90;;;;;;5026655;28;20049;-68
2020/12/13 09:34:38;;;;;;;20.10;13.10;;;2.50;99.90;;;;;;5023504;28;20053;-66
2020/12/13 09:37:11;;;;;;;22.13;14.13;;;2.60;99.90;;;;;;5023523;28;20678;-64
2020/12/13 09:39:38;;;;;;;25.10;13.95;;;2.60;99.90;;;;;;5025226;28;20832;-72
2020/12/13 09:42:09;;;;;;;23.35;14.02;;;2.60;99.90;;;;;;5023028;28;20079;-68
2020/12/13 09:44:36;;;;;;;27.10;14.80;;;2.60;99.90;;;;;;5026603;28;20042;-70
2020/12/13 09:47:02;;;;;;;21.60;12.93;;;2.60;99.90;;;;;;5026014;28;20079;-68
2020/12/13 09:49:30;;;;;;;21.73;13.57;;;2.60;99.90;;;;;;5031030;28;20049;-68
2020/12/13 09:52:04;;;;;;;28.15;14.60;;;2.60;99.90;;;;;;5020766;28;20057;-71
2020/12/13 09:54:31;;;;;;;22.00;12.63;;;2.60;99.90;;;;;;5027825;28;20056;-71
2020/12/13 09:56:57;;;;;;;22.08;14.40;;;2.60;99.90;;;;;;5026518;28;20080;-67
2020/12/13 09:59:25;;;;;;;22.40;14.13;;;2.60;99.90;;;;;;5027183;28;20048;-72
2020/12/13 10:01:52;;;;;;;21.42;12.23;;;2.60;99.90;;;;;;5028036;28;20828;-69
2020/12/13 10:04:20;;;;;;;20.75;13.65;;;2.60;99.90;;;;;;5024998;28;20562;-67
2020/12/13 10:09:19;;;;;;;19.40;12.80;;;2.60;99.90;;;;;;5024960;28;20045;-69
2020/12/13 10:11:46;;;;;;;20.65;13.70;;;2.50;99.90;;;;;;5029319;28;20057;-67
2020/12/13 10:14:13;;;;;;;21.73;12.70;;;2.50;99.90;;;;;;5026025;28;20041;-70
2020/12/13 10:16:41;;;;;;;23.63;15.05;;;2.60;99.90;;;;;;5031680;28;20052;-68
2020/12/13 10:19:09;;;;;;;22.73;13.98;;;2.60;99.90;;;;;;5027034;28;20056;-68
2020/12/13 10:21:36;;;;;;;28.90;13.63;;;2.60;99.90;;;;;;5032785;28;20044;-63
2020/12/13 10:24:03;;;;;;;21.50;13.85;;;2.60;99.90;;;;;;5023722;28;20087;-66
2020/12/13 10:26:33;;;;;;;21.23;13.20;;;2.60;99.90;;;;;;5028883;28;20045;-72
2020/12/13 10:29:02;;;;;;;19.80;13.32;;;2.60;99.90;;;;;;5027241;28;20128;-66
2020/12/13 10:31:37;;;;;;;21.08;14.18;;;2.70;99.90;;;;;;5032939;28;20056;-64
2020/12/13 10:34:06;;;;;;;19.63;11.80;;;2.70;99.90;;;;;;5024215;28;20440;-63
2020/12/13 10:36:35;;;;;;;21.83;14.02;;;2.70;99.90;;;;;;5028923;28;20041;-70
2020/12/13 10:39:04;;;;;;;24.02;12.90;;;2.60;99.90;;;;;;5027587;28;20110;-67
2020/12/13 10:41:32;;;;;;;21.85;13.30;;;2.70;99.90;;;;;;5025485;28;20041;-65
2020/12/13 10:43:58;;;;;;;21.13;13.65;;;2.70;99.90;;;;;;5024011;28;20517;-67
2020/12/13 10:46:25;;;;;;;18.00;10.57;;;2.70;99.90;;;;;;5024177;28;21499;-68
2020/12/13 10:48:52;;;;;;;21.15;13.63;;;2.70;99.90;;;;;;5026417;28;20539;-68
2020/12/13 10:51:19;;;;;;;18.20;11.77;;;2.70;99.90;;;;;;5023139;28;20449;-64
2020/12/13 10:53:47;;;;;;;17.20;11.30;;;2.70;99.90;;;;;;5025168;28;20048;-67
2020/12/13 10:56:14;;;;;;;19.17;10.98;;;2.70;99.90;;;;;;5026230;28;20045;-70
2020/12/13 10:58:42;;;;;;;17.75;11.27;;;2.70;99.90;;;;;;5031868;28;20552;-67
2020/12/13 11:01:09;;;;;;;14.60;10.25;;;2.70;99.90;;;;;;5020782;28;20049;-66
2020/12/13 11:03:36;;;;;;;17.50;10.98;;;2.70;99.90;;;;;;5021643;28;20080;-70
2020/12/13 11:06:03;;;;;;;16.88;10.27;;;2.70;99.90;;;;;;5027863;28;20156;-68
2020/12/13 11:08:29;;;;;;;16.35;11.40;;;2.70;99.90;;;;;;5028479;28;20052;-67
2020/12/13 11:10:56;;;;;;;15.65;10.70;;;2.70;99.90;;;;;;5023073;28;20049;-67
2020/12/13 11:13:22;;;;;;;16.38;10.75;;;2.70;99.90;;;;;;5024523;28;20088;-66
2020/12/13 11:15:49;;;;;;;16.38;10.63;;;2.70;99.90;;;;;;5027194;28;20049;-67
2020/12/13 11:18:15;;;;;;;16.95;9.50;;;2.70;99.90;;;;;;5022368;28;20049;-65
2020/12/13 11:20:42;;;;;;;16.75;10.52;;;2.70;99.90;;;;;;5022274;28;20037;-72
2020/12/13 11:23:09;;;;;;;18.83;9.57;;;2.70;99.90;;;;;;5022406;28;20175;-65
2020/12/13 11:25:36;;;;;;;15.88;10.18;;;2.70;99.90;;;;;;5023686;28;20044;-68
2020/12/13 11:28:05;;;;;;;16.73;11.00;;;2.70;99.90;;;;;;5023304;28;20038;-65
2020/12/13 11:30:33;;;;;;;13.50;7.72;;;2.70;99.90;;;;;;5024117;28;20041;-63
2020/12/13 11:33:00;;;;;;;13.30;8.70;;;2.70;99.90;;;;;;5018471;28;20440;-66
2020/12/13 11:35:26;;;;;;;15.57;9.80;;;2.70;99.90;;;;;;5023669;28;20049;-69
2020/12/13 11:37:53;;;;;;;15.43;8.75;;;2.70;99.90;;;;;;5020642;28;20041;-65
2020/12/13 11:40:20;;;;;;;14.65;9.93;;;2.70;99.90;;;;;;5024849;28;20049;-67
2020/12/13 11:42:46;;;;;;;14.60;8.63;;;2.70;99.90;;;;;;5019668;28;20131;-69
2020/12/13 11:45:13;;;;;;;14.18;9.80;;;2.60;99.90;;;;;;5025079;28;20053;-68
2020/12/13 11:47:40;;;;;;;15.25;8.13;;;2.60;99.90;;;;;;5020098;28;20378;-69
2020/12/13 11:50:06;;;;;;;15.45;9.80;;;2.70;99.90;;;;;;5023098;28;20166;-65
2020/12/13 11:52:33;;;;;;;12.13;8.93;;;2.60;99.90;;;;;;5021597;28;20056;-65
2020/12/13 11:55:00;;;;;;;16.33;9.13;;;2.60;99.90;;;;;;5027569;28;20064;-72
2020/12/13 11:57:26;;;;;;;14.02;9.82;;;2.60;99.90;;;;;;5020356;28;20049;-76
2020/12/13 11:59:53;;;;;;;11.25;7.68;;;2.60;99.90;;;;;;5018034;28;20045;-64
2020/12/13 12:02:19;;;;;;;12.70;8.60;;;2.60;99.90;;;;;;5014446;28;20952;-66
2020/12/13 12:04:47;;;;;;;14.30;8.65;;;2.60;99.90;;;;;;5018289;28;20052;-65
2020/12/13 12:07:13;;;;;;;13.00;8.52;;;2.60;99.90;;;;;;5028685;28;20050;-66
2020/12/13 12:09:41;;;;;;;11.43;8.98;;;2.60;99.90;;;;;;5023255;28;20049;-65
2020/12/13 12:12:07;;;;;;;29.48;8.80;;;2.60;99.90;;;;;;5024717;28;20559;-69
2020/12/13 12:14:34;;;;;;;12.00;9.18;;;2.60;99.90;;;;;;5020053;28;20588;-68
2020/12/13 12:17:03;;;;;;;10.05;7.97;;;2.60;99.90;;;;;;5022873;28;21161;-67
2020/12/13 12:19:31;;;;;;;14.77;8.70;;;2.60;99.90;;;;;;5022233;28;20060;-67
2020/12/13 12:21:57;;;;;;;16.13;9.35;;;2.60;99.90;;;;;;5020012;28;20306;-70
2020/12/13 12:24:25;;;;;;;11.05;7.50;;;2.60;99.90;;;;;;5025519;28;20530;-70
2020/12/13 12:26:53;;;;;;;12.55;8.73;;;2.60;99.90;;;;;;5019338;28;20041;-67
2020/12/13 12:29:21;;;;;;;14.55;8.75;;;2.60;99.90;;;;;;5025767;28;20544;-68
2020/12/13 12:31:51;;;;;;;16.38;9.18;;;2.60;99.90;;;;;;5022043;28;20064;-70
2020/12/13 12:34:17;;;;;;;;;;;2.50;99.90;;;;;;5020746;28;20060;-66
2020/12/13 12:36:44;;;;;;;14.65;8.70;;;2.60;99.90;;;;;;5018654;28;20568;-68
2020/12/13 12:39:11;;;;;;;14.18;8.50;;;2.50;99.90;;;;;;5031280;28;20055;-68
2020/12/13 12:41:42;;;;;;;12.60;8.00;;;2.50;99.90;;;;;;5024143;28;20038;-69
2020/12/13 12:44:08;;;;;;;14.93;8.65;;;2.50;99.90;;;;;;5028821;28;20126;-68
2020/12/13 12:46:36;;;;;;;11.32;8.02;;;2.40;99.90;;;;;;5022163;28;20174;-69
2020/12/13 12:49:03;;;;;;;12.23;8.95;;;2.40;99.90;;;;;;5028302;28;20033;-68
2020/12/13 12:51:29;;;;;;;15.48;9.60;;;2.40;99.90;;;;;;5027818;28;20056;-70
2020/12/13 12:53:56;;;;;;;14.95;9.02;;;2.40;99.90;;;;;;5023835;28;20463;-71
2020/12/13 12:56:23;;;;;;;13.65;8.38;;;2.40;99.90;;;;;;5026565;28;20047;-70